sensor_id;sensor_type;location;lat;lon;timestamp;P1;durP1;ratioP1;P2;durP2;ratioP2
23754;SDS011;12057;52.042;6.830;2023-05-16T00:05:00;16.90;;;2.03;;
23754;SDS011;12057;52.042;6.830;2023-05-16T00:10:01;8.43;;;2.00;;
23754;SDS011;12057;52.042;6.830;2023-05-16T00:15:02;16.48;;;2.55;;
23754;SDS011;12057;52.042;6.830;2023-05-16T00:20:07;31.10;;;3.13;;
23754;SDS011;12057;52.042;6.830;2023-05-16T00:25:13;13.57;;;2.70;;
23754;SDS011;12057;52.042;6.830;2023-05-16T00:30:14;26.13;;;2.67;;
23754;SDS011;12057;52.042;6.830;2023-05-16T00:35:14;20.20;;;3.23;;
23754;SDS011;12057;52.042;6.830;2023-05-16T00:40:15;16.20;;;2.30;;
23754;SDS011;12057;52.042;6.830;2023-05-16T00:45:16;25.17;;;3.10;;
23754;SDS011;12057;52.042;6.830;2023-05-16T00:50:18;32.10;;;3.65;;
23754;SDS011;12057;52.042;6.830;2023-05-16T00:55:19;32.87;;;3.70;;
23754;SDS011;12057;52.042;6.830;2023-05-16T01:00:19;24.60;;;3.10;;
23754;SDS011;12057;52.042;6.830;2023-05-16T01:05:21;27.65;;;4.05;;
23754;SDS011;12057;52.042;6.830;2023-05-16T01:10:22;20.17;;;4.15;;
23754;SDS011;12057;52.042;6.830;2023-05-16T01:15:24;22.60;;;3.42;;
23754;SDS011;12057;52.042;6.830;2023-05-16T01:30:44;19.65;;;3.35;;
23754;SDS011;12057;52.042;6.830;2023-05-16T01:40:58;33.60;;;4.70;;
23754;SDS011;12057;52.042;6.830;2023-05-16T01:46:39;31.88;;;4.13;;
23754;SDS011;12057;52.042;6.830;2023-05-16T01:57:05;27.75;;;4.20;;
23754;SDS011;12057;52.042;6.830;2023-05-16T02:02:08;26.30;;;3.85;;
23754;SDS011;12057;52.042;6.830;2023-05-16T02:07:08;24.90;;;3.40;;
23754;SDS011;12057;52.042;6.830;2023-05-16T02:12:09;29.97;;;4.33;;
23754;SDS011;12057;52.042;6.830;2023-05-16T02:17:10;27.53;;;3.20;;
23754;SDS011;12057;52.042;6.830;2023-05-16T02:22:11;32.90;;;3.47;;
23754;SDS011;12057;52.042;6.830;2023-05-16T02:27:11;27.63;;;3.43;;
23754;SDS011;12057;52.042;6.830;2023-05-16T02:32:12;36.23;;;3.90;;
23754;SDS011;12057;52.042;6.830;2023-05-16T02:37:13;34.33;;;3.97;;
23754;SDS011;12057;52.042;6.830;2023-05-16T02:42:14;35.77;;;4.23;;
23754;SDS011;12057;52.042;6.830;2023-05-16T02:47:14;21.43;;;2.53;;
23754;SDS011;12057;52.042;6.830;2023-05-16T02:52:15;30.37;;;4.00;;
23754;SDS011;12057;52.042;6.830;2023-05-16T02:57:16;34.33;;;3.80;;
23754;SDS011;12057;52.042;6.830;2023-05-16T03:02:17;28.70;;;4.43;;
23754;SDS011;12057;52.042;6.830;2023-05-16T03:07:17;30.97;;;3.80;;
23754;SDS011;12057;52.042;6.830;2023-05-16T03:12:18;28.17;;;3.70;;
23754;SDS011;12057;52.042;6.830;2023-05-16T03:17:19;27.03;;;2.90;;
23754;SDS011;12057;52.042;6.830;2023-05-16T03:22:20;27.77;;;3.60;;
23754;SDS011;12057;52.042;6.830;2023-05-16T03:27:21;52.47;;;5.00;;
23754;SDS011;12057;52.042;6.830;2023-05-16T03:32:22;22.13;;;2.35;;
23754;SDS011;12057;52.042;6.830;2023-05-16T03:37:23;23.73;;;3.93;;
23754;SDS011;12057;52.042;6.830;2023-05-16T03:42:24;31.45;;;2.47;;
23754;SDS011;12057;52.042;6.830;2023-05-16T03:47:24;39.57;;;3.90;;
23754;SDS011;12057;52.042;6.830;2023-05-16T03:52:25;22.20;;;3.27;;
23754;SDS011;12057;52.042;6.830;2023-05-16T03:57:26;24.00;;;2.70;;
23754;SDS011;12057;52.042;6.830;2023-05-16T04:02:29;19.13;;;2.55;;
23754;SDS011;12057;52.042;6.830;2023-05-16T04:07:29;23.53;;;2.80;;
23754;SDS011;12057;52.042;6.830;2023-05-16T04:12:30;19.37;;;2.93;;
23754;SDS011;12057;52.042;6.830;2023-05-16T04:17:31;40.97;;;4.53;;
23754;SDS011;12057;52.042;6.830;2023-05-16T04:22:32;22.67;;;3.45;;
23754;SDS011;12057;52.042;6.830;2023-05-16T04:27:33;21.40;;;2.53;;
23754;SDS011;12057;52.042;6.830;2023-05-16T04:32:34;22.57;;;2.50;;
23754;SDS011;12057;52.042;6.830;2023-05-16T04:37:35;28.88;;;3.00;;
23754;SDS011;12057;52.042;6.830;2023-05-16T04:42:37;13.52;;;2.15;;
23754;SDS011;12057;52.042;6.830;2023-05-16T04:47:37;26.23;;;3.17;;
23754;SDS011;12057;52.042;6.830;2023-05-16T04:52:38;16.83;;;3.17;;
23754;SDS011;12057;52.042;6.830;2023-05-16T04:57:39;33.58;;;4.65;;
23754;SDS011;12057;52.042;6.830;2023-05-16T05:02:40;31.57;;;2.90;;
23754;SDS011;12057;52.042;6.830;2023-05-16T05:07:41;34.67;;;2.97;;
23754;SDS011;12057;52.042;6.830;2023-05-16T05:12:42;27.85;;;3.38;;
23754;SDS011;12057;52.042;6.830;2023-05-16T05:17:42;29.43;;;2.70;;
23754;SDS011;12057;52.042;6.830;2023-05-16T05:22:43;23.20;;;3.17;;
23754;SDS011;12057;52.042;6.830;2023-05-16T05:27:44;24.53;;;3.33;;
23754;SDS011;12057;52.042;6.830;2023-05-16T05:32:45;19.00;;;2.53;;
23754;SDS011;12057;52.042;6.830;2023-05-16T05:37:46;32.60;;;2.57;;
23754;SDS011;12057;52.042;6.830;2023-05-16T05:42:46;19.83;;;3.10;;
23754;SDS011;12057;52.042;6.830;2023-05-16T05:47:47;18.77;;;2.57;;
23754;SDS011;12057;52.042;6.830;2023-05-16T05:52:48;27.00;;;2.83;;
23754;SDS011;12057;52.042;6.830;2023-05-16T05:57:49;29.00;;;4.17;;
23754;SDS011;12057;52.042;6.830;2023-05-16T06:02:50;20.90;;;2.50;;
23754;SDS011;12057;52.042;6.830;2023-05-16T06:07:50;34.03;;;2.67;;
23754;SDS011;12057;52.042;6.830;2023-05-16T06:12:51;24.83;;;3.93;;
23754;SDS011;12057;52.042;6.830;2023-05-16T06:18:01;19.07;;;2.77;;
23754;SDS011;12057;52.042;6.830;2023-05-16T06:23:02;40.17;;;3.33;;
23754;SDS011;12057;52.042;6.830;2023-05-16T06:28:03;17.10;;;1.67;;
23754;SDS011;12057;52.042;6.830;2023-05-16T06:33:04;25.07;;;3.10;;
23754;SDS011;12057;52.042;6.830;2023-05-16T06:38:05;31.43;;;2.50;;
23754;SDS011;12057;52.042;6.830;2023-05-16T06:43:09;20.67;;;2.87;;
23754;SDS011;12057;52.042;6.830;2023-05-16T06:48:12;17.88;;;3.22;;
23754;SDS011;12057;52.042;6.830;2023-05-16T06:53:14;23.33;;;2.85;;
23754;SDS011;12057;52.042;6.830;2023-05-16T07:03:43;18.67;;;2.05;;
23754;SDS011;12057;52.042;6.830;2023-05-16T07:08:44;20.10;;;2.97;;
23754;SDS011;12057;52.042;6.830;2023-05-16T07:13:45;21.73;;;2.33;;
23754;SDS011;12057;52.042;6.830;2023-05-16T07:18:45;14.73;;;1.97;;
23754;SDS011;12057;52.042;6.830;2023-05-16T07:23:46;11.43;;;1.70;;
23754;SDS011;12057;52.042;6.830;2023-05-16T07:28:48;16.47;;;2.07;;
23754;SDS011;12057;52.042;6.830;2023-05-16T07:33:49;21.23;;;1.52;;
23754;SDS011;12057;52.042;6.830;2023-05-16T07:38:50;16.67;;;1.57;;
23754;SDS011;12057;52.042;6.830;2023-05-16T07:43:51;22.80;;;2.23;;
23754;SDS011;12057;52.042;6.830;2023-05-16T07:48:51;21.50;;;1.70;;
23754;SDS011;12057;52.042;6.830;2023-05-16T07:53:52;9.70;;;1.80;;
23754;SDS011;12057;52.042;6.830;2023-05-16T07:58:53;12.53;;;1.80;;
23754;SDS011;12057;52.042;6.830;2023-05-16T08:03:54;15.05;;;1.92;;
23754;SDS011;12057;52.042;6.830;2023-05-16T08:08:55;13.97;;;1.17;;
23754;SDS011;12057;52.042;6.830;2023-05-16T08:13:55;15.03;;;1.93;;
23754;SDS011;12057;52.042;6.830;2023-05-16T08:18:56;10.40;;;1.60;;
23754;SDS011;12057;52.042;6.830;2023-05-16T08:23:57;8.73;;;1.20;;
23754;SDS011;12057;52.042;6.830;2023-05-16T08:28:58;6.53;;;1.33;;
23754;SDS011;12057;52.042;6.830;2023-05-16T08:33:59;11.77;;;1.90;;
23754;SDS011;12057;52.042;6.830;2023-05-16T08:39:00;13.18;;;1.70;;
23754;SDS011;12057;52.042;6.830;2023-05-16T08:44:01;15.77;;;1.50;;
23754;SDS011;12057;52.042;6.830;2023-05-16T08:49:02;8.07;;;1.83;;
23754;SDS011;12057;52.042;6.830;2023-05-16T08:54:08;10.13;;;1.40;;
23754;SDS011;12057;52.042;6.830;2023-05-16T08:59:12;6.75;;;1.20;;
23754;SDS011;12057;52.042;6.830;2023-05-16T09:04:14;9.05;;;1.20;;
23754;SDS011;12057;52.042;6.830;2023-05-16T09:09:15;10.00;;;1.30;;
23754;SDS011;12057;52.042;6.830;2023-05-16T09:14:16;14.33;;;1.73;;
23754;SDS011;12057;52.042;6.830;2023-05-16T09:19:17;7.17;;;1.33;;
23754;SDS011;12057;52.042;6.830;2023-05-16T09:24:17;9.77;;;1.50;;
23754;SDS011;12057;52.042;6.830;2023-05-16T09:29:33;5.88;;;0.88;;
23754;SDS011;12057;52.042;6.830;2023-05-16T09:35:30;8.95;;;1.38;;
23754;SDS011;12057;52.042;6.830;2023-05-16T09:45:32;6.43;;;1.25;;
23754;SDS011;12057;52.042;6.830;2023-05-16T09:50:39;8.60;;;1.10;;
23754;SDS011;12057;52.042;6.830;2023-05-16T10:01:47;14.18;;;1.38;;
23754;SDS011;12057;52.042;6.830;2023-05-16T10:06:50;8.18;;;1.40;;
23754;SDS011;12057;52.042;6.830;2023-05-16T10:11:53;11.35;;;1.88;;
23754;SDS011;12057;52.042;6.830;2023-05-16T10:16:55;6.13;;;1.38;;
23754;SDS011;12057;52.042;6.830;2023-05-16T10:21:57;4.03;;;0.85;;
23754;SDS011;12057;52.042;6.830;2023-05-16T10:27:03;11.93;;;1.27;;
23754;SDS011;12057;52.042;6.830;2023-05-16T10:32:04;6.60;;;1.17;;
23754;SDS011;12057;52.042;6.830;2023-05-16T10:37:07;10.00;;;1.33;;
23754;SDS011;12057;52.042;6.830;2023-05-16T10:47:09;17.63;;;1.70;;
23754;SDS011;12057;52.042;6.830;2023-05-16T10:52:10;4.60;;;0.93;;
23754;SDS011;12057;52.042;6.830;2023-05-16T10:57:16;18.67;;;1.27;;
23754;SDS011;12057;52.042;6.830;2023-05-16T11:07:33;7.72;;;1.15;;
23754;SDS011;12057;52.042;6.830;2023-05-16T11:12:36;4.90;;;1.23;;
23754;SDS011;12057;52.042;6.830;2023-05-16T11:17:38;9.35;;;1.77;;
23754;SDS011;12057;52.042;6.830;2023-05-16T11:22:40;10.93;;;1.63;;
23754;SDS011;12057;52.042;6.830;2023-05-16T11:27:44;11.00;;;2.50;;
23754;SDS011;12057;52.042;6.830;2023-05-16T11:32:46;12.25;;;1.20;;
23754;SDS011;12057;52.042;6.830;2023-05-16T11:37:49;9.32;;;1.83;;
23754;SDS011;12057;52.042;6.830;2023-05-16T11:42:50;11.77;;;1.57;;
23754;SDS011;12057;52.042;6.830;2023-05-16T11:47:51;6.37;;;1.17;;
23754;SDS011;12057;52.042;6.830;2023-05-16T11:52:53;14.57;;;5.65;;
23754;SDS011;12057;52.042;6.830;2023-05-16T11:57:56;11.32;;;1.90;;
23754;SDS011;12057;52.042;6.830;2023-05-16T12:03:01;5.05;;;1.08;;
23754;SDS011;12057;52.042;6.830;2023-05-16T12:08:03;6.97;;;1.23;;
23754;SDS011;12057;52.042;6.830;2023-05-16T12:13:05;6.18;;;1.33;;
23754;SDS011;12057;52.042;6.830;2023-05-16T12:18:06;19.87;;;1.63;;
23754;SDS011;12057;52.042;6.830;2023-05-16T12:23:10;11.43;;;2.27;;
23754;SDS011;12057;52.042;6.830;2023-05-16T12:28:12;7.85;;;1.30;;
23754;SDS011;12057;52.042;6.830;2023-05-16T12:33:14;12.30;;;1.52;;
23754;SDS011;12057;52.042;6.830;2023-05-16T12:38:16;7.72;;;1.38;;
23754;SDS011;12057;52.042;6.830;2023-05-16T12:43:19;10.43;;;1.65;;
23754;SDS011;12057;52.042;6.830;2023-05-16T12:48:21;7.10;;;1.77;;
23754;SDS011;12057;52.042;6.830;2023-05-16T12:53:23;8.43;;;1.70;;
23754;SDS011;12057;52.042;6.830;2023-05-16T12:58:24;12.30;;;1.83;;
23754;SDS011;12057;52.042;6.830;2023-05-16T13:03:26;6.10;;;1.75;;
23754;SDS011;12057;52.042;6.830;2023-05-16T13:08:27;9.90;;;1.37;;
23754;SDS011;12057;52.042;6.830;2023-05-16T13:18:29;4.95;;;2.28;;
23754;SDS011;12057;52.042;6.830;2023-05-16T13:23:30;11.90;;;2.22;;
23754;SDS011;12057;52.042;6.830;2023-05-16T13:28:32;8.50;;;2.05;;
23754;SDS011;12057;52.042;6.830;2023-05-16T13:33:32;9.80;;;2.00;;
23754;SDS011;12057;52.042;6.830;2023-05-16T13:38:35;9.55;;;1.85;;
23754;SDS011;12057;52.042;6.830;2023-05-16T13:43:36;13.07;;;1.93;;
23754;SDS011;12057;52.042;6.830;2023-05-16T13:48:36;12.60;;;2.10;;
23754;SDS011;12057;52.042;6.830;2023-05-16T13:53:40;23.80;;;1.57;;
23754;SDS011;12057;52.042;6.830;2023-05-16T13:58:42;10.63;;;2.33;;
23754;SDS011;12057;52.042;6.830;2023-05-16T14:03:42;11.53;;;1.40;;
23754;SDS011;12057;52.042;6.830;2023-05-16T14:08:43;5.00;;;1.03;;
23754;SDS011;12057;52.042;6.830;2023-05-16T14:13:47;3.47;;;1.10;;
23754;SDS011;12057;52.042;6.830;2023-05-16T14:18:48;9.95;;;1.20;;
23754;SDS011;12057;52.042;6.830;2023-05-16T14:23:49;13.00;;;1.53;;
23754;SDS011;12057;52.042;6.830;2023-05-16T14:28:50;5.90;;;1.20;;
23754;SDS011;12057;52.042;6.830;2023-05-16T14:33:51;4.20;;;1.10;;
23754;SDS011;12057;52.042;6.830;2023-05-16T14:38:51;6.73;;;1.40;;
23754;SDS011;12057;52.042;6.830;2023-05-16T14:43:52;4.87;;;1.57;;
23754;SDS011;12057;52.042;6.830;2023-05-16T14:48:54;7.35;;;1.92;;
23754;SDS011;12057;52.042;6.830;2023-05-16T14:53:54;11.87;;;1.77;;
23754;SDS011;12057;52.042;6.830;2023-05-16T14:58:55;12.27;;;1.87;;
23754;SDS011;12057;52.042;6.830;2023-05-16T15:03:56;10.67;;;2.27;;
23754;SDS011;12057;52.042;6.830;2023-05-16T15:08:57;10.83;;;5.23;;
23754;SDS011;12057;52.042;6.830;2023-05-16T15:13:58;11.40;;;3.93;;
23754;SDS011;12057;52.042;6.830;2023-05-16T15:18:59;10.13;;;3.55;;
23754;SDS011;12057;52.042;6.830;2023-05-16T15:24:00;25.90;;;10.37;;
23754;SDS011;12057;52.042;6.830;2023-05-16T15:29:01;9.23;;;3.90;;
23754;SDS011;12057;52.042;6.830;2023-05-16T15:34:01;14.00;;;4.73;;
23754;SDS011;12057;52.042;6.830;2023-05-16T15:39:02;14.93;;;5.33;;
23754;SDS011;12057;52.042;6.830;2023-05-16T15:44:03;19.00;;;4.00;;
23754;SDS011;12057;52.042;6.830;2023-05-16T15:49:10;12.43;;;3.97;;
23754;SDS011;12057;52.042;6.830;2023-05-16T15:54:14;14.50;;;3.90;;
23754;SDS011;12057;52.042;6.830;2023-05-16T15:59:15;12.48;;;3.25;;
23754;SDS011;12057;52.042;6.830;2023-05-16T16:04:16;16.80;;;5.17;;
23754;SDS011;12057;52.042;6.830;2023-05-16T16:09:17;20.52;;;3.92;;
23754;SDS011;12057;52.042;6.830;2023-05-16T16:14:18;12.97;;;3.00;;
23754;SDS011;12057;52.042;6.830;2023-05-16T16:19:19;13.73;;;3.07;;
23754;SDS011;12057;52.042;6.830;2023-05-16T16:24:20;14.07;;;3.20;;
23754;SDS011;12057;52.042;6.830;2023-05-16T16:29:20;15.97;;;2.80;;
23754;SDS011;12057;52.042;6.830;2023-05-16T16:34:21;19.13;;;7.73;;
23754;SDS011;12057;52.042;6.830;2023-05-16T16:39:22;10.13;;;2.27;;
23754;SDS011;12057;52.042;6.830;2023-05-16T16:44:24;14.75;;;4.60;;
23754;SDS011;12057;52.042;6.830;2023-05-16T16:49:28;12.73;;;3.00;;
23754;SDS011;12057;52.042;6.830;2023-05-16T16:54:30;13.95;;;2.50;;
23754;SDS011;12057;52.042;6.830;2023-05-16T16:59:31;15.70;;;6.10;;
23754;SDS011;12057;52.042;6.830;2023-05-16T17:04:31;13.10;;;2.87;;
23754;SDS011;12057;52.042;6.830;2023-05-16T17:09:40;10.55;;;2.13;;
23754;SDS011;12057;52.042;6.830;2023-05-16T17:14:42;12.25;;;2.22;;
23754;SDS011;12057;52.042;6.830;2023-05-16T17:19:44;7.33;;;3.00;;
23754;SDS011;12057;52.042;6.830;2023-05-16T17:24:45;10.13;;;3.42;;
23754;SDS011;12057;52.042;6.830;2023-05-16T17:29:46;18.77;;;3.73;;
23754;SDS011;12057;52.042;6.830;2023-05-16T17:34:47;16.33;;;4.33;;
23754;SDS011;12057;52.042;6.830;2023-05-16T17:39:49;19.73;;;5.97;;
23754;SDS011;12057;52.042;6.830;2023-05-16T17:44:49;12.00;;;2.53;;
23754;SDS011;12057;52.042;6.830;2023-05-16T17:49:51;13.38;;;2.67;;
23754;SDS011;12057;52.042;6.830;2023-05-16T17:54:51;6.60;;;1.83;;
23754;SDS011;12057;52.042;6.830;2023-05-16T17:59:52;18.30;;;4.20;;
23754;SDS011;12057;52.042;6.830;2023-05-16T18:04:53;8.17;;;2.70;;
23754;SDS011;12057;52.042;6.830;2023-05-16T18:09:54;16.88;;;4.70;;
23754;SDS011;12057;52.042;6.830;2023-05-16T18:14:58;21.37;;;7.27;;
23754;SDS011;12057;52.042;6.830;2023-05-16T18:19:59;13.43;;;3.20;;
23754;SDS011;12057;52.042;6.830;2023-05-16T18:25:08;12.32;;;2.90;;
23754;SDS011;12057;52.042;6.830;2023-05-16T18:30:10;9.60;;;2.13;;
23754;SDS011;12057;52.042;6.830;2023-05-16T18:35:12;3.65;;;0.95;;
23754;SDS011;12057;52.042;6.830;2023-05-16T18:40:13;12.73;;;3.93;;
23754;SDS011;12057;52.042;6.830;2023-05-16T18:45:13;20.53;;;6.00;;
23754;SDS011;12057;52.042;6.830;2023-05-16T18:50:17;12.50;;;5.20;;
23754;SDS011;12057;52.042;6.830;2023-05-16T18:55:18;3.75;;;1.35;;
23754;SDS011;12057;52.042;6.830;2023-05-16T19:00:19;13.10;;;3.07;;
23754;SDS011;12057;52.042;6.830;2023-05-16T19:05:20;10.67;;;3.40;;
23754;SDS011;12057;52.042;6.830;2023-05-16T19:10:20;4.60;;;1.20;;
23754;SDS011;12057;52.042;6.830;2023-05-16T19:15:22;7.22;;;1.23;;
23754;SDS011;12057;52.042;6.830;2023-05-16T19:20:23;8.83;;;1.00;;
23754;SDS011;12057;52.042;6.830;2023-05-16T19:25:24;6.03;;;1.30;;
23754;SDS011;12057;52.042;6.830;2023-05-16T19:30:25;8.45;;;1.50;;
23754;SDS011;12057;52.042;6.830;2023-05-16T19:35:26;9.87;;;1.67;;
23754;SDS011;12057;52.042;6.830;2023-05-16T19:40:27;9.13;;;1.67;;
23754;SDS011;12057;52.042;6.830;2023-05-16T19:45:29;5.18;;;1.45;;
23754;SDS011;12057;52.042;6.830;2023-05-16T19:50:30;12.63;;;2.83;;
23754;SDS011;12057;52.042;6.830;2023-05-16T19:55:31;9.73;;;3.13;;
23754;SDS011;12057;52.042;6.830;2023-05-16T20:00:34;8.15;;;1.75;;
23754;SDS011;12057;52.042;6.830;2023-05-16T20:05:35;4.70;;;1.67;;
23754;SDS011;12057;52.042;6.830;2023-05-16T20:10:37;11.13;;;2.07;;
23754;SDS011;12057;52.042;6.830;2023-05-16T20:15:38;12.02;;;2.05;;
23754;SDS011;12057;52.042;6.830;2023-05-16T20:20:39;12.83;;;2.37;;
23754;SDS011;12057;52.042;6.830;2023-05-16T20:25:39;5.70;;;1.73;;
23754;SDS011;12057;52.042;6.830;2023-05-16T20:30:40;6.20;;;2.27;;
23754;SDS011;12057;52.042;6.830;2023-05-16T20:35:41;10.73;;;2.40;;
23754;SDS011;12057;52.042;6.830;2023-05-16T20:40:42;10.37;;;1.83;;
23754;SDS011;12057;52.042;6.830;2023-05-16T20:45:42;6.30;;;2.37;;
23754;SDS011;12057;52.042;6.830;2023-05-16T20:50:43;7.77;;;2.00;;
23754;SDS011;12057;52.042;6.830;2023-05-16T20:55:44;7.15;;;2.67;;
23754;SDS011;12057;52.042;6.830;2023-05-16T21:00:45;11.93;;;2.27;;
23754;SDS011;12057;52.042;6.830;2023-05-16T21:05:46;8.57;;;2.40;;
23754;SDS011;12057;52.042;6.830;2023-05-16T21:10:50;9.37;;;1.90;;
23754;SDS011;12057;52.042;6.830;2023-05-16T21:15:50;10.43;;;2.60;;
23754;SDS011;12057;52.042;6.830;2023-05-16T21:20:51;10.67;;;3.13;;
23754;SDS011;12057;52.042;6.830;2023-05-16T21:25:52;8.43;;;2.57;;
23754;SDS011;12057;52.042;6.830;2023-05-16T21:30:53;10.87;;;2.60;;
23754;SDS011;12057;52.042;6.830;2023-05-16T21:35:54;7.80;;;2.92;;
23754;SDS011;12057;52.042;6.830;2023-05-16T21:40:55;10.20;;;2.77;;
23754;SDS011;12057;52.042;6.830;2023-05-16T21:46:02;8.07;;;2.75;;
23754;SDS011;12057;52.042;6.830;2023-05-16T21:51:02;9.65;;;3.30;;
23754;SDS011;12057;52.042;6.830;2023-05-16T21:56:04;8.50;;;3.20;;
23754;SDS011;12057;52.042;6.830;2023-05-16T22:01:05;11.85;;;2.70;;
23754;SDS011;12057;52.042;6.830;2023-05-16T22:06:06;8.23;;;2.63;;
23754;SDS011;12057;52.042;6.830;2023-05-16T22:11:07;12.23;;;3.33;;
23754;SDS011;12057;52.042;6.830;2023-05-16T22:16:08;8.60;;;2.80;;
23754;SDS011;12057;52.042;6.830;2023-05-16T22:21:08;12.97;;;3.23;;
23754;SDS011;12057;52.042;6.830;2023-05-16T22:26:10;9.98;;;3.17;;
23754;SDS011;12057;52.042;6.830;2023-05-16T22:31:11;7.30;;;2.60;;
23754;SDS011;12057;52.042;6.830;2023-05-16T22:36:11;5.83;;;2.73;;
23754;SDS011;12057;52.042;6.830;2023-05-16T22:41:12;17.17;;;4.00;;
23754;SDS011;12057;52.042;6.830;2023-05-16T22:46:13;13.03;;;3.53;;
23754;SDS011;12057;52.042;6.830;2023-05-16T22:51:14;15.25;;;3.53;;
23754;SDS011;12057;52.042;6.830;2023-05-16T22:56:15;15.00;;;3.70;;
23754;SDS011;12057;52.042;6.830;2023-05-16T23:01:15;8.30;;;3.37;;
23754;SDS011;12057;52.042;6.830;2023-05-16T23:06:16;15.20;;;3.57;;
23754;SDS011;12057;52.042;6.830;2023-05-16T23:11:17;12.53;;;4.23;;
23754;SDS011;12057;52.042;6.830;2023-05-16T23:16:18;12.57;;;2.70;;
23754;SDS011;12057;52.042;6.830;2023-05-16T23:21:19;14.97;;;3.67;;
23754;SDS011;12057;52.042;6.830;2023-05-16T23:26:20;13.83;;;3.40;;
23754;SDS011;12057;52.042;6.830;2023-05-16T23:31:21;10.97;;;3.70;;
23754;SDS011;12057;52.042;6.830;2023-05-16T23:36:21;12.20;;;3.40;;
23754;SDS011;12057;52.042;6.830;2023-05-16T23:41:22;19.13;;;3.60;;
23754;SDS011;12057;52.042;6.830;2023-05-16T23:46:23;17.27;;;3.70;;
23754;SDS011;12057;52.042;6.830;2023-05-16T23:51:24;20.33;;;4.90;;
23754;SDS011;12057;52.042;6.830;2023-05-16T23:56:25;16.67;;;3.73;;
